sensor_id;sensor_type;location;lat;lon;timestamp;P1;durP1;ratioP1;P2;durP2;ratioP2
48588;SDS011;34369;51.174;6.738;2023-07-24T00:01:19;26.38;;;24.38;;
48588;SDS011;34369;51.174;6.738;2023-07-24T00:03:51;26.23;;;24.33;;
48588;SDS011;34369;51.174;6.738;2023-07-24T00:06:24;26.25;;;24.40;;
48588;SDS011;34369;51.174;6.738;2023-07-24T00:08:57;26.17;;;24.38;;
48588;SDS011;34369;51.174;6.738;2023-07-24T00:11:29;25.63;;;23.90;;
48588;SDS011;34369;51.174;6.738;2023-07-24T00:14:03;26.27;;;24.40;;
48588;SDS011;34369;51.174;6.738;2023-07-24T00:16:36;26.02;;;24.27;;
48588;SDS011;34369;51.174;6.738;2023-07-24T00:19:09;25.77;;;24.05;;
48588;SDS011;34369;51.174;6.738;2023-07-24T00:21:42;25.90;;;24.13;;
48588;SDS011;34369;51.174;6.738;2023-07-24T00:24:14;25.90;;;24.10;;
48588;SDS011;34369;51.174;6.738;2023-07-24T00:26:47;26.58;;;24.67;;
48588;SDS011;34369;51.174;6.738;2023-07-24T00:29:19;26.35;;;24.58;;
48588;SDS011;34369;51.174;6.738;2023-07-24T00:31:53;25.95;;;24.05;;
48588;SDS011;34369;51.174;6.738;2023-07-24T00:34:26;27.10;;;25.30;;
48588;SDS011;34369;51.174;6.738;2023-07-24T00:36:58;26.90;;;25.10;;
48588;SDS011;34369;51.174;6.738;2023-07-24T00:39:30;26.50;;;24.65;;
48588;SDS011;34369;51.174;6.738;2023-07-24T00:42:02;26.67;;;24.77;;
48588;SDS011;34369;51.174;6.738;2023-07-24T00:44:35;26.20;;;24.40;;
48588;SDS011;34369;51.174;6.738;2023-07-24T00:47:09;26.92;;;25.13;;
48588;SDS011;34369;51.174;6.738;2023-07-24T00:49:41;27.00;;;25.08;;
48588;SDS011;34369;51.174;6.738;2023-07-24T00:52:13;26.23;;;24.42;;
48588;SDS011;34369;51.174;6.738;2023-07-24T00:54:47;27.20;;;25.30;;
48588;SDS011;34369;51.174;6.738;2023-07-24T00:57:22;26.90;;;25.10;;
48588;SDS011;34369;51.174;6.738;2023-07-24T00:59:55;25.95;;;24.10;;
48588;SDS011;34369;51.174;6.738;2023-07-24T01:02:29;26.17;;;24.38;;
48588;SDS011;34369;51.174;6.738;2023-07-24T01:05:01;26.90;;;25.10;;
48588;SDS011;34369;51.174;6.738;2023-07-24T01:07:35;27.25;;;25.15;;
48588;SDS011;34369;51.174;6.738;2023-07-24T01:10:07;26.42;;;24.65;;
48588;SDS011;34369;51.174;6.738;2023-07-24T01:12:42;25.60;;;23.90;;
48588;SDS011;34369;51.174;6.738;2023-07-24T01:15:24;26.40;;;24.50;;
48588;SDS011;34369;51.174;6.738;2023-07-24T01:18:05;27.30;;;25.50;;
48588;SDS011;34369;51.174;6.738;2023-07-24T01:20:42;27.55;;;25.65;;
48588;SDS011;34369;51.174;6.738;2023-07-24T01:23:30;27.13;;;25.33;;
48588;SDS011;34369;51.174;6.738;2023-07-24T01:26:26;27.67;;;25.77;;
48588;SDS011;34369;51.174;6.738;2023-07-24T01:28:58;27.00;;;25.20;;
48588;SDS011;34369;51.174;6.738;2023-07-24T01:31:32;28.00;;;26.08;;
48588;SDS011;34369;51.174;6.738;2023-07-24T01:34:04;26.83;;;25.02;;
48588;SDS011;34369;51.174;6.738;2023-07-24T01:36:36;27.17;;;25.27;;
48588;SDS011;34369;51.174;6.738;2023-07-24T01:39:09;26.40;;;24.60;;
48588;SDS011;34369;51.174;6.738;2023-07-24T01:41:43;27.55;;;25.63;;
48588;SDS011;34369;51.174;6.738;2023-07-24T01:44:15;26.77;;;24.98;;
48588;SDS011;34369;51.174;6.738;2023-07-24T01:46:47;26.95;;;25.05;;
48588;SDS011;34369;51.174;6.738;2023-07-24T01:49:19;27.73;;;25.83;;
48588;SDS011;34369;51.174;6.738;2023-07-24T01:51:52;27.33;;;25.52;;
48588;SDS011;34369;51.174;6.738;2023-07-24T01:54:24;27.13;;;25.17;;
48588;SDS011;34369;51.174;6.738;2023-07-24T01:56:57;26.88;;;25.08;;
48588;SDS011;34369;51.174;6.738;2023-07-24T01:59:29;27.75;;;25.88;;
48588;SDS011;34369;51.174;6.738;2023-07-24T02:02:02;28.05;;;26.05;;
48588;SDS011;34369;51.174;6.738;2023-07-24T02:04:34;27.45;;;25.55;;
48588;SDS011;34369;51.174;6.738;2023-07-24T02:07:06;28.50;;;26.50;;
48588;SDS011;34369;51.174;6.738;2023-07-24T02:09:38;27.05;;;25.15;;
48588;SDS011;34369;51.174;6.738;2023-07-24T02:12:11;27.88;;;25.98;;
48588;SDS011;34369;51.174;6.738;2023-07-24T02:14:43;27.27;;;25.25;;
48588;SDS011;34369;51.174;6.738;2023-07-24T02:17:18;27.75;;;25.85;;
48588;SDS011;34369;51.174;6.738;2023-07-24T02:19:50;27.30;;;25.30;;
48588;SDS011;34369;51.174;6.738;2023-07-24T02:22:22;28.27;;;26.27;;
48588;SDS011;34369;51.174;6.738;2023-07-24T02:24:55;27.67;;;25.65;;
48588;SDS011;34369;51.174;6.738;2023-07-24T02:27:30;28.63;;;26.45;;
48588;SDS011;34369;51.174;6.738;2023-07-24T02:30:04;28.08;;;25.90;;
48588;SDS011;34369;51.174;6.738;2023-07-24T02:32:38;27.88;;;25.98;;
48588;SDS011;34369;51.174;6.738;2023-07-24T02:35:11;27.88;;;25.83;;
48588;SDS011;34369;51.174;6.738;2023-07-24T02:37:44;26.98;;;24.88;;
48588;SDS011;34369;51.174;6.738;2023-07-24T02:40:16;27.10;;;25.20;;
48588;SDS011;34369;51.174;6.738;2023-07-24T02:42:50;28.80;;;26.65;;
48588;SDS011;34369;51.174;6.738;2023-07-24T02:45:22;28.25;;;26.27;;
48588;SDS011;34369;51.174;6.738;2023-07-24T02:47:55;28.20;;;26.08;;
48588;SDS011;34369;51.174;6.738;2023-07-24T02:50:27;27.05;;;25.05;;
48588;SDS011;34369;51.174;6.738;2023-07-24T02:52:59;27.65;;;25.75;;
48588;SDS011;34369;51.174;6.738;2023-07-24T02:55:31;27.48;;;25.48;;
48588;SDS011;34369;51.174;6.738;2023-07-24T02:58:04;27.10;;;25.10;;
48588;SDS011;34369;51.174;6.738;2023-07-24T03:00:37;27.20;;;25.30;;
48588;SDS011;34369;51.174;6.738;2023-07-24T03:03:09;27.02;;;25.13;;
48588;SDS011;34369;51.174;6.738;2023-07-24T03:05:41;27.90;;;25.83;;
48588;SDS011;34369;51.174;6.738;2023-07-24T03:08:13;28.25;;;25.98;;
48588;SDS011;34369;51.174;6.738;2023-07-24T03:10:45;27.20;;;25.20;;
48588;SDS011;34369;51.174;6.738;2023-07-24T03:13:19;28.60;;;26.52;;
48588;SDS011;34369;51.174;6.738;2023-07-24T03:15:52;26.83;;;24.95;;
48588;SDS011;34369;51.174;6.738;2023-07-24T03:18:24;27.63;;;25.52;;
48588;SDS011;34369;51.174;6.738;2023-07-24T03:20:57;27.50;;;25.52;;
48588;SDS011;34369;51.174;6.738;2023-07-24T03:23:29;27.73;;;25.63;;
48588;SDS011;34369;51.174;6.738;2023-07-24T03:26:02;27.42;;;25.52;;
48588;SDS011;34369;51.174;6.738;2023-07-24T03:28:35;27.48;;;25.52;;
48588;SDS011;34369;51.174;6.738;2023-07-24T03:31:08;27.55;;;25.55;;
48588;SDS011;34369;51.174;6.738;2023-07-24T03:33:40;27.17;;;25.27;;
48588;SDS011;34369;51.174;6.738;2023-07-24T03:36:13;28.35;;;26.05;;
48588;SDS011;34369;51.174;6.738;2023-07-24T03:38:46;28.30;;;26.30;;
48588;SDS011;34369;51.174;6.738;2023-07-24T03:41:19;26.70;;;24.90;;
48588;SDS011;34369;51.174;6.738;2023-07-24T03:43:54;27.13;;;25.23;;
48588;SDS011;34369;51.174;6.738;2023-07-24T03:46:26;26.43;;;24.53;;
48588;SDS011;34369;51.174;6.738;2023-07-24T03:48:59;27.98;;;25.90;;
48588;SDS011;34369;51.174;6.738;2023-07-24T03:51:32;27.13;;;25.23;;
48588;SDS011;34369;51.174;6.738;2023-07-24T03:54:04;28.67;;;26.70;;
48588;SDS011;34369;51.174;6.738;2023-07-24T03:56:38;27.80;;;25.80;;
48588;SDS011;34369;51.174;6.738;2023-07-24T03:59:13;28.25;;;26.17;;
48588;SDS011;34369;51.174;6.738;2023-07-24T04:01:46;27.60;;;25.60;;
48588;SDS011;34369;51.174;6.738;2023-07-24T04:04:19;27.02;;;25.23;;
48588;SDS011;34369;51.174;6.738;2023-07-24T04:06:52;27.48;;;25.45;;
48588;SDS011;34369;51.174;6.738;2023-07-24T04:09:25;27.58;;;25.58;;
48588;SDS011;34369;51.174;6.738;2023-07-24T04:11:59;27.60;;;25.60;;
48588;SDS011;34369;51.174;6.738;2023-07-24T04:14:34;27.50;;;25.60;;
48588;SDS011;34369;51.174;6.738;2023-07-24T04:17:06;27.88;;;25.88;;
48588;SDS011;34369;51.174;6.738;2023-07-24T04:19:39;27.25;;;25.33;;
48588;SDS011;34369;51.174;6.738;2023-07-24T04:22:11;27.75;;;25.75;;
48588;SDS011;34369;51.174;6.738;2023-07-24T04:24:44;28.02;;;26.02;;
48588;SDS011;34369;51.174;6.738;2023-07-24T04:27:16;27.30;;;25.42;;
48588;SDS011;34369;51.174;6.738;2023-07-24T04:29:50;28.60;;;26.50;;
48588;SDS011;34369;51.174;6.738;2023-07-24T04:32:22;27.13;;;25.23;;
48588;SDS011;34369;51.174;6.738;2023-07-24T04:34:57;27.50;;;25.58;;
48588;SDS011;34369;51.174;6.738;2023-07-24T04:37:30;28.25;;;26.15;;
48588;SDS011;34369;51.174;6.738;2023-07-24T04:40:03;27.33;;;25.40;;
48588;SDS011;34369;51.174;6.738;2023-07-24T04:42:37;26.80;;;24.85;;
48588;SDS011;34369;51.174;6.738;2023-07-24T04:45:11;27.60;;;25.70;;
48588;SDS011;34369;51.174;6.738;2023-07-24T04:47:43;27.92;;;25.77;;
48588;SDS011;34369;51.174;6.738;2023-07-24T04:50:16;28.20;;;25.85;;
48588;SDS011;34369;51.174;6.738;2023-07-24T04:52:48;28.20;;;26.10;;
48588;SDS011;34369;51.174;6.738;2023-07-24T04:55:21;28.13;;;25.95;;
48588;SDS011;34369;51.174;6.738;2023-07-24T04:57:53;27.55;;;25.65;;
48588;SDS011;34369;51.174;6.738;2023-07-24T05:00:28;27.95;;;25.85;;
48588;SDS011;34369;51.174;6.738;2023-07-24T05:03:00;27.70;;;25.65;;
48588;SDS011;34369;51.174;6.738;2023-07-24T05:05:32;28.33;;;26.23;;
48588;SDS011;34369;51.174;6.738;2023-07-24T05:08:07;28.73;;;26.73;;
48588;SDS011;34369;51.174;6.738;2023-07-24T05:10:39;27.85;;;25.85;;
48588;SDS011;34369;51.174;6.738;2023-07-24T05:13:11;27.83;;;25.73;;
48588;SDS011;34369;51.174;6.738;2023-07-24T05:15:45;28.05;;;26.05;;
48588;SDS011;34369;51.174;6.738;2023-07-24T05:18:17;27.80;;;25.80;;
48588;SDS011;34369;51.174;6.738;2023-07-24T05:20:49;27.25;;;25.25;;
48588;SDS011;34369;51.174;6.738;2023-07-24T05:23:22;28.08;;;25.95;;
48588;SDS011;34369;51.174;6.738;2023-07-24T05:25:57;27.73;;;25.63;;
48588;SDS011;34369;51.174;6.738;2023-07-24T05:28:32;27.42;;;25.48;;
48588;SDS011;34369;51.174;6.738;2023-07-24T05:31:07;27.70;;;25.50;;
48588;SDS011;34369;51.174;6.738;2023-07-24T05:33:39;28.25;;;26.00;;
48588;SDS011;34369;51.174;6.738;2023-07-24T05:36:11;28.02;;;25.85;;
48588;SDS011;34369;51.174;6.738;2023-07-24T05:38:45;27.40;;;25.42;;
48588;SDS011;34369;51.174;6.738;2023-07-24T05:41:17;27.45;;;25.45;;
48588;SDS011;34369;51.174;6.738;2023-07-24T05:43:50;27.25;;;25.08;;
48588;SDS011;34369;51.174;6.738;2023-07-24T05:46:24;27.55;;;25.48;;
48588;SDS011;34369;51.174;6.738;2023-07-24T05:48:56;27.48;;;25.48;;
48588;SDS011;34369;51.174;6.738;2023-07-24T05:51:30;27.35;;;25.17;;
48588;SDS011;34369;51.174;6.738;2023-07-24T05:54:03;26.92;;;24.98;;
48588;SDS011;34369;51.174;6.738;2023-07-24T05:56:35;27.10;;;25.20;;
48588;SDS011;34369;51.174;6.738;2023-07-24T05:59:07;26.95;;;25.05;;
48588;SDS011;34369;51.174;6.738;2023-07-24T06:01:43;27.23;;;25.33;;
48588;SDS011;34369;51.174;6.738;2023-07-24T06:04:16;27.23;;;25.10;;
48588;SDS011;34369;51.174;6.738;2023-07-24T06:06:49;27.10;;;25.10;;
48588;SDS011;34369;51.174;6.738;2023-07-24T06:09:21;26.60;;;24.58;;
48588;SDS011;34369;51.174;6.738;2023-07-24T06:11:53;28.00;;;25.90;;
48588;SDS011;34369;51.174;6.738;2023-07-24T06:14:26;27.33;;;25.30;;
48588;SDS011;34369;51.174;6.738;2023-07-24T06:17:00;26.38;;;24.55;;
48588;SDS011;34369;51.174;6.738;2023-07-24T06:19:32;27.15;;;25.05;;
48588;SDS011;34369;51.174;6.738;2023-07-24T06:22:06;26.55;;;24.60;;
48588;SDS011;34369;51.174;6.738;2023-07-24T06:24:38;26.58;;;24.67;;
48588;SDS011;34369;51.174;6.738;2023-07-24T06:27:11;26.27;;;24.30;;
48588;SDS011;34369;51.174;6.738;2023-07-24T06:29:43;26.15;;;24.15;;
48588;SDS011;34369;51.174;6.738;2023-07-24T06:32:24;26.85;;;24.75;;
48588;SDS011;34369;51.174;6.738;2023-07-24T06:34:58;26.98;;;25.08;;
48588;SDS011;34369;51.174;6.738;2023-07-24T06:37:31;25.80;;;23.98;;
48588;SDS011;34369;51.174;6.738;2023-07-24T06:40:03;26.17;;;24.27;;
48588;SDS011;34369;51.174;6.738;2023-07-24T06:42:39;26.30;;;24.40;;
48588;SDS011;34369;51.174;6.738;2023-07-24T06:45:12;26.00;;;24.00;;
48588;SDS011;34369;51.174;6.738;2023-07-24T06:47:46;26.13;;;24.30;;
48588;SDS011;34369;51.174;6.738;2023-07-24T06:50:18;25.83;;;23.92;;
48588;SDS011;34369;51.174;6.738;2023-07-24T06:52:50;25.55;;;23.73;;
48588;SDS011;34369;51.174;6.738;2023-07-24T06:55:23;25.58;;;23.35;;
48588;SDS011;34369;51.174;6.738;2023-07-24T06:57:56;25.58;;;23.58;;
48588;SDS011;34369;51.174;6.738;2023-07-24T07:00:29;26.33;;;24.27;;
48588;SDS011;34369;51.174;6.738;2023-07-24T07:03:04;25.25;;;23.45;;
48588;SDS011;34369;51.174;6.738;2023-07-24T07:05:37;26.10;;;24.05;;
48588;SDS011;34369;51.174;6.738;2023-07-24T07:08:09;25.65;;;23.75;;
48588;SDS011;34369;51.174;6.738;2023-07-24T07:10:43;25.17;;;23.38;;
48588;SDS011;34369;51.174;6.738;2023-07-24T07:13:15;25.05;;;23.23;;
48588;SDS011;34369;51.174;6.738;2023-07-24T07:15:48;24.98;;;23.08;;
48588;SDS011;34369;51.174;6.738;2023-07-24T07:18:23;25.63;;;23.73;;
48588;SDS011;34369;51.174;6.738;2023-07-24T07:20:55;24.67;;;22.92;;
48588;SDS011;34369;51.174;6.738;2023-07-24T07:23:28;25.00;;;23.20;;
48588;SDS011;34369;51.174;6.738;2023-07-24T07:26:01;25.73;;;23.73;;
48588;SDS011;34369;51.174;6.738;2023-07-24T07:28:35;24.80;;;23.10;;
48588;SDS011;34369;51.174;6.738;2023-07-24T07:31:08;25.65;;;23.85;;
48588;SDS011;34369;51.174;6.738;2023-07-24T07:33:42;27.25;;;25.25;;
48588;SDS011;34369;51.174;6.738;2023-07-24T07:36:15;29.60;;;27.33;;
48588;SDS011;34369;51.174;6.738;2023-07-24T07:38:47;26.25;;;24.35;;
48588;SDS011;34369;51.174;6.738;2023-07-24T07:41:20;25.33;;;23.45;;
48588;SDS011;34369;51.174;6.738;2023-07-24T07:43:53;24.48;;;22.67;;
48588;SDS011;34369;51.174;6.738;2023-07-24T07:46:26;25.17;;;23.40;;
48588;SDS011;34369;51.174;6.738;2023-07-24T07:49:00;25.23;;;23.33;;
48588;SDS011;34369;51.174;6.738;2023-07-24T07:51:32;24.95;;;23.15;;
48588;SDS011;34369;51.174;6.738;2023-07-24T07:54:04;25.58;;;23.77;;
48588;SDS011;34369;51.174;6.738;2023-07-24T07:56:36;25.15;;;23.35;;
48588;SDS011;34369;51.174;6.738;2023-07-24T07:59:09;25.45;;;23.65;;
48588;SDS011;34369;51.174;6.738;2023-07-24T08:01:42;24.75;;;23.00;;
48588;SDS011;34369;51.174;6.738;2023-07-24T08:04:35;25.10;;;23.30;;
48588;SDS011;34369;51.174;6.738;2023-07-24T08:07:10;24.75;;;22.98;;
48588;SDS011;34369;51.174;6.738;2023-07-24T08:09:42;24.73;;;22.85;;
48588;SDS011;34369;51.174;6.738;2023-07-24T08:12:15;24.50;;;22.80;;
48588;SDS011;34369;51.174;6.738;2023-07-24T08:14:47;24.75;;;22.85;;
48588;SDS011;34369;51.174;6.738;2023-07-24T08:17:19;24.52;;;22.67;;
48588;SDS011;34369;51.174;6.738;2023-07-24T08:19:53;24.50;;;22.55;;
48588;SDS011;34369;51.174;6.738;2023-07-24T08:22:25;23.95;;;22.25;;
48588;SDS011;34369;51.174;6.738;2023-07-24T08:24:58;24.27;;;22.58;;
48588;SDS011;34369;51.174;6.738;2023-07-24T08:27:30;24.70;;;22.90;;
48588;SDS011;34369;51.174;6.738;2023-07-24T08:30:03;23.45;;;21.75;;
48588;SDS011;34369;51.174;6.738;2023-07-24T08:32:37;23.38;;;21.58;;
48588;SDS011;34369;51.174;6.738;2023-07-24T08:35:14;23.88;;;22.15;;
48588;SDS011;34369;51.174;6.738;2023-07-24T08:37:46;23.48;;;21.77;;
48588;SDS011;34369;51.174;6.738;2023-07-24T08:40:18;24.50;;;22.60;;
48588;SDS011;34369;51.174;6.738;2023-07-24T08:42:51;23.05;;;21.38;;
48588;SDS011;34369;51.174;6.738;2023-07-24T08:45:25;25.05;;;23.15;;
48588;SDS011;34369;51.174;6.738;2023-07-24T08:47:58;24.70;;;22.80;;
48588;SDS011;34369;51.174;6.738;2023-07-24T08:50:33;24.35;;;22.58;;
48588;SDS011;34369;51.174;6.738;2023-07-24T08:53:06;24.23;;;22.42;;
48588;SDS011;34369;51.174;6.738;2023-07-24T08:55:39;24.38;;;22.48;;
48588;SDS011;34369;51.174;6.738;2023-07-24T08:58:14;24.38;;;22.58;;
48588;SDS011;34369;51.174;6.738;2023-07-24T09:00:46;23.88;;;22.00;;
48588;SDS011;34369;51.174;6.738;2023-07-24T09:03:27;25.05;;;23.23;;
48588;SDS011;34369;51.174;6.738;2023-07-24T09:06:05;25.08;;;23.08;;
48588;SDS011;34369;51.174;6.738;2023-07-24T09:08:39;25.03;;;23.13;;
48588;SDS011;34369;51.174;6.738;2023-07-24T09:11:15;24.63;;;22.83;;
48588;SDS011;34369;51.174;6.738;2023-07-24T09:13:48;24.73;;;22.85;;
48588;SDS011;34369;51.174;6.738;2023-07-24T09:16:21;24.50;;;22.65;;
48588;SDS011;34369;51.174;6.738;2023-07-24T09:18:55;24.77;;;22.90;;
48588;SDS011;34369;51.174;6.738;2023-07-24T09:21:29;23.92;;;22.23;;
48588;SDS011;34369;51.174;6.738;2023-07-24T09:24:10;24.25;;;22.52;;
48588;SDS011;34369;51.174;6.738;2023-07-24T09:26:48;24.67;;;22.88;;
48588;SDS011;34369;51.174;6.738;2023-07-24T09:29:29;24.50;;;22.80;;
48588;SDS011;34369;51.174;6.738;2023-07-24T09:32:03;24.67;;;22.88;;
48588;SDS011;34369;51.174;6.738;2023-07-24T09:34:41;24.98;;;23.08;;
48588;SDS011;34369;51.174;6.738;2023-07-24T09:37:23;24.98;;;23.08;;
48588;SDS011;34369;51.174;6.738;2023-07-24T09:39:57;24.85;;;22.85;;
48588;SDS011;34369;51.174;6.738;2023-07-24T09:42:30;24.30;;;22.50;;
48588;SDS011;34369;51.174;6.738;2023-07-24T09:45:04;23.95;;;22.25;;
48588;SDS011;34369;51.174;6.738;2023-07-24T09:47:39;23.98;;;22.27;;
48588;SDS011;34369;51.174;6.738;2023-07-24T09:50:11;23.77;;;21.98;;
48588;SDS011;34369;51.174;6.738;2023-07-24T09:52:45;23.65;;;21.95;;
48588;SDS011;34369;51.174;6.738;2023-07-24T09:55:21;24.35;;;22.45;;
48588;SDS011;34369;51.174;6.738;2023-07-24T09:58:00;24.70;;;22.80;;
48588;SDS011;34369;51.174;6.738;2023-07-24T10:00:33;23.02;;;21.33;;
48588;SDS011;34369;51.174;6.738;2023-07-24T10:03:06;23.25;;;21.48;;
48588;SDS011;34369;51.174;6.738;2023-07-24T10:05:39;22.92;;;21.23;;
48588;SDS011;34369;51.174;6.738;2023-07-24T10:08:15;23.27;;;21.38;;
48588;SDS011;34369;51.174;6.738;2023-07-24T10:10:49;23.05;;;21.38;;
48588;SDS011;34369;51.174;6.738;2023-07-24T10:13:25;23.30;;;21.60;;
48588;SDS011;34369;51.174;6.738;2023-07-24T10:15:59;23.10;;;21.40;;
48588;SDS011;34369;51.174;6.738;2023-07-24T10:18:33;23.13;;;21.38;;
48588;SDS011;34369;51.174;6.738;2023-07-24T10:21:12;22.70;;;21.08;;
48588;SDS011;34369;51.174;6.738;2023-07-24T10:23:47;23.33;;;21.63;;
48588;SDS011;34369;51.174;6.738;2023-07-24T10:26:24;21.95;;;20.35;;
48588;SDS011;34369;51.174;6.738;2023-07-24T10:28:57;23.00;;;21.30;;
48588;SDS011;34369;51.174;6.738;2023-07-24T10:31:30;22.92;;;21.20;;
48588;SDS011;34369;51.174;6.738;2023-07-24T10:34:03;22.52;;;20.92;;
48588;SDS011;34369;51.174;6.738;2023-07-24T10:36:37;22.48;;;20.88;;
48588;SDS011;34369;51.174;6.738;2023-07-24T10:39:15;22.90;;;21.23;;
48588;SDS011;34369;51.174;6.738;2023-07-24T10:41:50;22.73;;;21.02;;
48588;SDS011;34369;51.174;6.738;2023-07-24T10:44:29;23.10;;;21.30;;
48588;SDS011;34369;51.174;6.738;2023-07-24T10:47:03;22.92;;;21.23;;
48588;SDS011;34369;51.174;6.738;2023-07-24T10:49:37;22.55;;;20.92;;
48588;SDS011;34369;51.174;6.738;2023-07-24T10:52:27;22.10;;;20.40;;
48588;SDS011;34369;51.174;6.738;2023-07-24T10:55:02;21.92;;;20.33;;
48588;SDS011;34369;51.174;6.738;2023-07-24T10:57:34;22.15;;;20.33;;
48588;SDS011;34369;51.174;6.738;2023-07-24T11:00:07;22.00;;;20.40;;
48588;SDS011;34369;51.174;6.738;2023-07-24T11:02:41;22.10;;;20.50;;
48588;SDS011;34369;51.174;6.738;2023-07-24T11:05:13;22.45;;;20.75;;
48588;SDS011;34369;51.174;6.738;2023-07-24T11:07:46;21.80;;;20.20;;
48588;SDS011;34369;51.174;6.738;2023-07-24T11:10:21;22.08;;;20.48;;
48588;SDS011;34369;51.174;6.738;2023-07-24T11:12:55;22.45;;;20.83;;
48588;SDS011;34369;51.174;6.738;2023-07-24T11:15:28;22.15;;;20.55;;
48588;SDS011;34369;51.174;6.738;2023-07-24T11:18:00;22.73;;;21.02;;
48588;SDS011;34369;51.174;6.738;2023-07-24T11:20:33;23.20;;;21.60;;
48588;SDS011;34369;51.174;6.738;2023-07-24T11:23:08;22.73;;;21.13;;
48588;SDS011;34369;51.174;6.738;2023-07-24T11:25:43;22.88;;;21.27;;
48588;SDS011;34369;51.174;6.738;2023-07-24T11:28:17;23.13;;;21.52;;
48588;SDS011;34369;51.174;6.738;2023-07-24T11:30:49;23.15;;;21.48;;
48588;SDS011;34369;51.174;6.738;2023-07-24T11:33:22;23.25;;;21.45;;
48588;SDS011;34369;51.174;6.738;2023-07-24T11:35:56;23.17;;;21.50;;
48588;SDS011;34369;51.174;6.738;2023-07-24T11:38:29;22.98;;;21.27;;
48588;SDS011;34369;51.174;6.738;2023-07-24T11:41:03;23.65;;;21.88;;
48588;SDS011;34369;51.174;6.738;2023-07-24T11:43:49;24.70;;;22.83;;
48588;SDS011;34369;51.174;6.738;2023-07-24T11:46:47;24.70;;;22.80;;
48588;SDS011;34369;51.174;6.738;2023-07-24T11:49:24;25.58;;;23.70;;
48588;SDS011;34369;51.174;6.738;2023-07-24T11:52:03;25.60;;;23.88;;
48588;SDS011;34369;51.174;6.738;2023-07-24T11:54:39;25.30;;;23.40;;
48588;SDS011;34369;51.174;6.738;2023-07-24T11:57:16;25.70;;;23.80;;
48588;SDS011;34369;51.174;6.738;2023-07-24T11:59:49;25.25;;;23.48;;
48588;SDS011;34369;51.174;6.738;2023-07-24T12:02:23;24.77;;;23.08;;
48588;SDS011;34369;51.174;6.738;2023-07-24T12:04:59;25.55;;;23.83;;
48588;SDS011;34369;51.174;6.738;2023-07-24T12:07:33;25.55;;;23.73;;
48588;SDS011;34369;51.174;6.738;2023-07-24T12:10:07;25.08;;;23.38;;
48588;SDS011;34369;51.174;6.738;2023-07-24T12:12:42;26.10;;;24.30;;
48588;SDS011;34369;51.174;6.738;2023-07-24T12:15:18;25.70;;;23.98;;
48588;SDS011;34369;51.174;6.738;2023-07-24T12:17:51;25.63;;;23.85;;
48588;SDS011;34369;51.174;6.738;2023-07-24T12:20:26;24.40;;;22.70;;
48588;SDS011;34369;51.174;6.738;2023-07-24T12:23:01;25.88;;;24.17;;
48588;SDS011;34369;51.174;6.738;2023-07-24T12:25:33;25.95;;;23.80;;
48588;SDS011;34369;51.174;6.738;2023-07-24T12:28:08;25.38;;;23.60;;
48588;SDS011;34369;51.174;6.738;2023-07-24T12:30:41;24.38;;;22.67;;
48588;SDS011;34369;51.174;6.738;2023-07-24T12:33:15;24.70;;;22.38;;
48588;SDS011;34369;51.174;6.738;2023-07-24T12:35:47;22.85;;;21.25;;
48588;SDS011;34369;51.174;6.738;2023-07-24T12:38:20;23.17;;;21.48;;
48588;SDS011;34369;51.174;6.738;2023-07-24T12:40:54;23.60;;;21.90;;
48588;SDS011;34369;51.174;6.738;2023-07-24T12:43:28;23.20;;;21.60;;
48588;SDS011;34369;51.174;6.738;2023-07-24T12:46:00;22.45;;;20.85;;
48588;SDS011;34369;51.174;6.738;2023-07-24T12:48:33;22.52;;;20.88;;
48588;SDS011;34369;51.174;6.738;2023-07-24T12:51:06;22.30;;;20.70;;
48588;SDS011;34369;51.174;6.738;2023-07-24T12:53:38;23.00;;;21.40;;
48588;SDS011;34369;51.174;6.738;2023-07-24T12:56:11;22.80;;;21.20;;
48588;SDS011;34369;51.174;6.738;2023-07-24T12:58:45;22.40;;;20.75;;
48588;SDS011;34369;51.174;6.738;2023-07-24T13:01:17;22.48;;;20.88;;
48588;SDS011;34369;51.174;6.738;2023-07-24T13:03:49;21.65;;;20.05;;
48588;SDS011;34369;51.174;6.738;2023-07-24T13:06:23;22.50;;;20.90;;
48588;SDS011;34369;51.174;6.738;2023-07-24T13:08:56;22.90;;;21.30;;
48588;SDS011;34369;51.174;6.738;2023-07-24T13:11:28;21.80;;;20.20;;
48588;SDS011;34369;51.174;6.738;2023-07-24T13:14:02;21.88;;;20.27;;
48588;SDS011;34369;51.174;6.738;2023-07-24T13:16:35;22.02;;;20.40;;
48588;SDS011;34369;51.174;6.738;2023-07-24T13:19:07;22.73;;;21.13;;
48588;SDS011;34369;51.174;6.738;2023-07-24T13:21:40;22.00;;;20.50;;
48588;SDS011;34369;51.174;6.738;2023-07-24T13:24:13;22.20;;;20.60;;
48588;SDS011;34369;51.174;6.738;2023-07-24T13:26:47;22.10;;;20.50;;
48588;SDS011;34369;51.174;6.738;2023-07-24T13:29:22;22.52;;;20.90;;
48588;SDS011;34369;51.174;6.738;2023-07-24T13:31:54;22.30;;;20.70;;
48588;SDS011;34369;51.174;6.738;2023-07-24T13:34:27;22.35;;;20.75;;
48588;SDS011;34369;51.174;6.738;2023-07-24T13:37:00;22.23;;;20.63;;
48588;SDS011;34369;51.174;6.738;2023-07-24T13:39:34;22.08;;;20.48;;
48588;SDS011;34369;51.174;6.738;2023-07-24T13:42:08;22.00;;;20.40;;
48588;SDS011;34369;51.174;6.738;2023-07-24T13:44:42;22.05;;;20.55;;
48588;SDS011;34369;51.174;6.738;2023-07-24T13:47:15;21.67;;;20.17;;
48588;SDS011;34369;51.174;6.738;2023-07-24T13:49:50;22.27;;;20.67;;
48588;SDS011;34369;51.174;6.738;2023-07-24T13:52:22;22.42;;;20.83;;
48588;SDS011;34369;51.174;6.738;2023-07-24T13:54:55;22.48;;;20.88;;
48588;SDS011;34369;51.174;6.738;2023-07-24T13:57:27;22.00;;;20.50;;
48588;SDS011;34369;51.174;6.738;2023-07-24T14:00:04;22.48;;;20.88;;
48588;SDS011;34369;51.174;6.738;2023-07-24T14:02:39;23.13;;;21.52;;
48588;SDS011;34369;51.174;6.738;2023-07-24T14:05:12;22.55;;;20.95;;
48588;SDS011;34369;51.174;6.738;2023-07-24T14:07:45;22.73;;;21.13;;
48588;SDS011;34369;51.174;6.738;2023-07-24T14:10:18;22.60;;;21.00;;
48588;SDS011;34369;51.174;6.738;2023-07-24T14:12:51;22.50;;;20.90;;
48588;SDS011;34369;51.174;6.738;2023-07-24T14:15:25;22.02;;;20.52;;
48588;SDS011;34369;51.174;6.738;2023-07-24T14:17:59;22.17;;;20.60;;
48588;SDS011;34369;51.174;6.738;2023-07-24T14:20:31;22.13;;;20.52;;
48588;SDS011;34369;51.174;6.738;2023-07-24T14:23:04;22.27;;;20.77;;
48588;SDS011;34369;51.174;6.738;2023-07-24T14:25:37;22.75;;;21.15;;
48588;SDS011;34369;51.174;6.738;2023-07-24T14:28:09;22.42;;;20.83;;
48588;SDS011;34369;51.174;6.738;2023-07-24T14:30:44;22.38;;;20.77;;
48588;SDS011;34369;51.174;6.738;2023-07-24T14:33:17;22.90;;;21.30;;
48588;SDS011;34369;51.174;6.738;2023-07-24T14:35:54;23.35;;;21.75;;
48588;SDS011;34369;51.174;6.738;2023-07-24T14:38:31;23.58;;;21.92;;
48588;SDS011;34369;51.174;6.738;2023-07-24T14:41:03;23.70;;;21.95;;
48588;SDS011;34369;51.174;6.738;2023-07-24T14:43:36;24.15;;;22.45;;
48588;SDS011;34369;51.174;6.738;2023-07-24T14:46:14;23.50;;;21.90;;
48588;SDS011;34369;51.174;6.738;2023-07-24T14:48:48;23.95;;;22.15;;
48588;SDS011;34369;51.174;6.738;2023-07-24T14:51:23;24.13;;;22.42;;
48588;SDS011;34369;51.174;6.738;2023-07-24T14:54:00;24.08;;;22.48;;
48588;SDS011;34369;51.174;6.738;2023-07-24T14:56:35;23.70;;;22.10;;
48588;SDS011;34369;51.174;6.738;2023-07-24T14:59:13;24.60;;;22.90;;